TAP2005 KSFO-LPPR
Flight info
| Callsign | TAP2005 |
|---|---|
| Flight time | N/A |
| Altitude | 33000 |
| Route | TRUKN2 ORRCA Q120 GALLI DCT BAM DCT KU78Q/N0470F350 DCT RICCO Q138 MOTLY DCT KP90A DCT KP90C DCT HUFFR DCT GEP DCT KP03K DCT TOSEE DCT NOTAP/N0460F370 DCT KAPUX DCT TALNO DCT MUTNA DCT CABCI DCT BGR DCT EBONY/M081F370 N71A RAFIN DCT 45N050W 45N040W 44N030W/M081F390 42N020W DCT BANAL/N0466F390 DCT UBANI UBANI3A |
| Aircraft | A339/H-SADE1E2E3GHIJ3J5M1P2RWXY/LB2D1 |
Departure
| Time | 2026-05-05 00:29 |
|---|---|
| Airport | San Francisco International Airport (KSFO) |
Arrival
| Time | N/A |
|---|---|
| Airport | Francisco de Sá Carneiro Airport (LPPR) |
| Time | Latitude | Longitude | Altitude | Speed | Heading |
|---|---|---|---|---|---|
| 2026-05-05 00:05 | 37.62156 | -122.38997 | 19 ft | 0 kts | 206° |
| 2026-05-05 00:19 | 37.62162 | -122.38993 | 24 ft | 2 kts | 202° |
| 2026-05-05 00:19 | 37.62175 | -122.38987 | 22 ft | 2 kts | 201° |
| 2026-05-05 00:19 | 37.62188 | -122.38981 | 21 ft | 2 kts | 193° |
| 2026-05-05 00:20 | 37.62202 | -122.38978 | 21 ft | 2 kts | 182° |
| 2026-05-05 00:20 | 37.62216 | -122.38978 | 24 ft | 2 kts | 168° |
| 2026-05-05 00:20 | 37.62229 | -122.38982 | 25 ft | 2 kts | 147° |
| 2026-05-05 00:20 | 37.62240 | -122.38993 | 24 ft | 2 kts | 120° |
| 2026-05-05 00:21 | 37.62246 | -122.39008 | 24 ft | 2 kts | 94° |
| 2026-05-05 00:21 | 37.62247 | -122.39017 | 24 ft | 0 kts | 77° |
| 2026-05-05 00:21 | 37.62247 | -122.39019 | 25 ft | 0 kts | 73° |
| 2026-05-05 00:21 | 37.62247 | -122.39018 | 23 ft | 0 kts | 73° |
| 2026-05-05 00:24 | 37.62248 | -122.39016 | 18 ft | 2 kts | 73° |
| 2026-05-05 00:24 | 37.62257 | -122.38975 | 19 ft | 9 kts | 75° |
| 2026-05-05 00:25 | 37.62247 | -122.38864 | 17 ft | 16 kts | 114° |
| 2026-05-05 00:25 | 37.62182 | -122.38717 | 18 ft | 22 kts | 116° |
| 2026-05-05 00:25 | 37.62103 | -122.38529 | 25 ft | 27 kts | 119° |
| 2026-05-05 00:25 | 37.62009 | -122.38305 | 28 ft | 32 kts | 117° |
| 2026-05-05 00:26 | 37.61895 | -122.38035 | 28 ft | 38 kts | 118° |
| 2026-05-05 00:26 | 37.61780 | -122.37709 | 26 ft | 43 kts | 111° |
| 2026-05-05 00:26 | 37.61663 | -122.37378 | 29 ft | 42 kts | 118° |
| 2026-05-05 00:26 | 37.61521 | -122.37040 | 30 ft | 46 kts | 117° |
| 2026-05-05 00:27 | 37.61331 | -122.36698 | 25 ft | 50 kts | 120° |
| 2026-05-05 00:27 | 37.61163 | -122.36297 | 24 ft | 53 kts | 118° |
| 2026-05-05 00:27 | 37.61056 | -122.36009 | 24 ft | 29 kts | 95° |
| 2026-05-05 00:27 | 37.61182 | -122.35882 | 25 ft | 15 kts | 337° |
| 2026-05-05 00:28 | 37.61230 | -122.35984 | 22 ft | 11 kts | 298° |
| 2026-05-05 00:28 | 37.61259 | -122.36055 | 18 ft | 17 kts | 297° |
| 2026-05-05 00:28 | 37.61426 | -122.36458 | 19 ft | 85 kts | 297° |
| 2026-05-05 00:28 | 37.61805 | -122.37340 | 22 ft | 143 kts | 297° |
| 2026-05-05 00:29 | 37.62358 | -122.38639 | 105 ft | 186 kts | 297° |
| 2026-05-05 00:29 | 37.63014 | -122.39992 | 968 ft | 181 kts | 312° |
| 2026-05-05 00:29 | 37.64123 | -122.40682 | 1869 ft | 182 kts | 355° |
| 2026-05-05 00:29 | 37.65361 | -122.40172 | 2391 ft | 205 kts | 38° |
| 2026-05-05 00:30 | 37.66171 | -122.38599 | 2650 ft | 232 kts | 76° |
| 2026-05-05 00:30 | 37.66408 | -122.36505 | 3088 ft | 250 kts | 83° |
| 2026-05-05 00:30 | 37.66718 | -122.34283 | 3557 ft | 264 kts | 76° |
| 2026-05-05 00:30 | 37.67269 | -122.32034 | 4156 ft | 269 kts | 70° |
| 2026-05-05 00:31 | 37.67962 | -122.29868 | 4612 ft | 263 kts | 67° |
| 2026-05-05 00:31 | 37.68763 | -122.27745 | 4846 ft | 273 kts | 64° |
| 2026-05-05 00:31 | 37.69667 | -122.25625 | 4941 ft | 272 kts | 62° |
| 2026-05-05 00:31 | 37.70707 | -122.23671 | 5043 ft | 273 kts | 51° |
| 2026-05-05 00:32 | 37.72023 | -122.21933 | 5429 ft | 274 kts | 45° |
| 2026-05-05 00:32 | 37.73433 | -122.20314 | 6122 ft | 274 kts | 42° |
| 2026-05-05 00:32 | 37.74900 | -122.18759 | 6768 ft | 277 kts | 40° |
| 2026-05-05 00:32 | 37.76416 | -122.17243 | 7437 ft | 278 kts | 39° |
| 2026-05-05 00:33 | 37.77957 | -122.15760 | 8086 ft | 280 kts | 37° |
| 2026-05-05 00:33 | 37.79535 | -122.14291 | 8739 ft | 281 kts | 37° |
| 2026-05-05 00:33 | 37.81127 | -122.12835 | 9391 ft | 283 kts | 36° |
| 2026-05-05 00:33 | 37.82737 | -122.11383 | 10034 ft | 285 kts | 35° |
| 2026-05-05 00:34 | 37.84357 | -122.09940 | 10390 ft | 296 kts | 35° |
| 2026-05-05 00:34 | 37.86118 | -122.08364 | 10550 ft | 315 kts | 36° |
| 2026-05-05 00:34 | 37.87923 | -122.06725 | 10773 ft | 332 kts | 36° |
| 2026-05-05 00:34 | 37.89840 | -122.04974 | 11038 ft | 346 kts | 36° |
| 2026-05-05 00:35 | 37.91839 | -122.03147 | 11312 ft | 360 kts | 36° |
| 2026-05-05 00:35 | 37.93898 | -122.01262 | 11701 ft | 368 kts | 36° |
| 2026-05-05 00:35 | 37.95978 | -121.99360 | 12342 ft | 369 kts | 36° |
| 2026-05-05 00:35 | 37.98075 | -121.97447 | 12940 ft | 371 kts | 36° |
| 2026-05-05 00:36 | 38.00157 | -121.95549 | 13545 ft | 374 kts | 36° |
| 2026-05-05 00:36 | 38.02291 | -121.93605 | 14098 ft | 377 kts | 36° |
| 2026-05-05 00:36 | 38.04436 | -121.91657 | 14622 ft | 380 kts | 36° |
| 2026-05-05 00:36 | 38.06589 | -121.89702 | 15160 ft | 382 kts | 36° |
| 2026-05-05 00:37 | 38.08765 | -121.87725 | 15712 ft | 385 kts | 37° |
| 2026-05-05 00:37 | 38.10923 | -121.85763 | 16276 ft | 386 kts | 37° |
| 2026-05-05 00:37 | 38.13121 | -121.83765 | 16889 ft | 388 kts | 37° |
| 2026-05-05 00:37 | 38.15317 | -121.81764 | 17528 ft | 389 kts | 37° |
| 2026-05-05 00:38 | 38.17521 | -121.79756 | 18171 ft | 390 kts | 38° |
| 2026-05-05 00:38 | 38.19732 | -121.77737 | 18723 ft | 391 kts | 38° |
| 2026-05-05 00:38 | 38.21949 | -121.75709 | 19279 ft | 391 kts | 38° |
| 2026-05-05 00:38 | 38.24165 | -121.73678 | 19789 ft | 392 kts | 38° |
| 2026-05-05 00:39 | 38.26349 | -121.71675 | 20285 ft | 393 kts | 38° |
| 2026-05-05 00:39 | 38.28571 | -121.69637 | 20792 ft | 393 kts | 38° |
| 2026-05-05 00:39 | 38.30801 | -121.67589 | 21273 ft | 395 kts | 38° |
| 2026-05-05 00:39 | 38.33026 | -121.65545 | 21777 ft | 396 kts | 38° |
| 2026-05-05 00:40 | 38.34513 | -121.64181 | 22087 ft | 397 kts | 38° |
| 2026-05-05 00:40 | 38.36764 | -121.62114 | 22578 ft | 398 kts | 38° |
| 2026-05-05 00:40 | 38.39753 | -121.59371 | 23209 ft | 400 kts | 38° |
| 2026-05-05 00:40 | 38.41281 | -121.57953 | 23510 ft | 400 kts | 39° |
| 2026-05-05 00:41 | 38.43301 | -121.55520 | 23890 ft | 400 kts | 48° |
| 2026-05-05 00:41 | 38.45162 | -121.52853 | 24264 ft | 402 kts | 50° |
| 2026-05-05 00:41 | 38.46948 | -121.50159 | 24624 ft | 404 kts | 51° |
| 2026-05-05 00:41 | 38.48743 | -121.47378 | 24990 ft | 406 kts | 51° |
| 2026-05-05 00:42 | 38.50531 | -121.44556 | 25359 ft | 408 kts | 52° |
| 2026-05-05 00:42 | 38.52314 | -121.41711 | 25728 ft | 410 kts | 52° |
| 2026-05-05 00:42 | 38.54098 | -121.38841 | 26078 ft | 412 kts | 52° |
| 2026-05-05 00:42 | 38.55858 | -121.35995 | 26450 ft | 414 kts | 52° |
| 2026-05-05 00:43 | 38.57650 | -121.33085 | 26791 ft | 417 kts | 52° |
| 2026-05-05 00:43 | 38.59446 | -121.30159 | 27151 ft | 419 kts | 52° |
| 2026-05-05 00:43 | 38.61253 | -121.27210 | 27506 ft | 421 kts | 52° |
| 2026-05-05 00:43 | 38.63068 | -121.24241 | 27848 ft | 424 kts | 53° |
| 2026-05-05 00:44 | 38.64867 | -121.21293 | 28181 ft | 426 kts | 53° |
| 2026-05-05 00:44 | 38.66695 | -121.18292 | 28493 ft | 429 kts | 53° |
| 2026-05-05 00:44 | 38.68533 | -121.15272 | 28812 ft | 431 kts | 53° |
| 2026-05-05 00:44 | 38.70378 | -121.12234 | 29149 ft | 433 kts | 53° |
| 2026-05-05 00:45 | 38.72225 | -121.09189 | 29607 ft | 432 kts | 53° |
| 2026-05-05 00:45 | 38.74059 | -121.06162 | 30086 ft | 431 kts | 53° |
| 2026-05-05 00:45 | 38.75899 | -121.03122 | 30485 ft | 430 kts | 53° |
| 2026-05-05 00:45 | 38.77719 | -121.00110 | 30803 ft | 431 kts | 53° |
| 2026-05-05 00:46 | 38.79560 | -120.97059 | 31146 ft | 432 kts | 53° |
| 2026-05-05 00:46 | 38.81403 | -120.94003 | 31506 ft | 432 kts | 53° |
| 2026-05-05 00:46 | 38.83215 | -120.90994 | 31868 ft | 432 kts | 53° |
| 2026-05-05 00:46 | 38.85054 | -120.87935 | 32316 ft | 430 kts | 53° |
| 2026-05-05 00:47 | 38.86845 | -120.84957 | 32769 ft | 413 kts | 53° |
| 2026-05-05 00:47 | 38.88587 | -120.82053 | 32944 ft | 409 kts | 53° |
| 2026-05-05 00:47 | 38.90344 | -120.79126 | 33011 ft | 417 kts | 52° |
| 2026-05-05 00:48 | 38.93923 | -120.73155 | 33038 ft | 425 kts | 52° |
| 2026-05-05 00:48 | 38.97502 | -120.67172 | 33044 ft | 422 kts | 52° |
| 2026-05-05 00:49 | 39.01077 | -120.61188 | 33028 ft | 421 kts | 53° |
| 2026-05-05 00:49 | 39.04671 | -120.55161 | 33023 ft | 424 kts | 53° |
| 2026-05-05 00:50 | 39.08248 | -120.49143 | 33019 ft | 425 kts | 53° |
| 2026-05-05 00:50 | 39.11838 | -120.43099 | 33010 ft | 425 kts | 53° |
| 2026-05-05 00:51 | 39.15435 | -120.37027 | 32996 ft | 427 kts | 53° |
| 2026-05-05 00:51 | 39.19017 | -120.30967 | 33002 ft | 428 kts | 53° |
| 2026-05-05 00:52 | 39.22655 | -120.24803 | 33010 ft | 428 kts | 53° |
| 2026-05-05 00:52 | 39.26235 | -120.18726 | 33016 ft | 428 kts | 53° |
| 2026-05-05 00:53 | 39.29840 | -120.12591 | 33018 ft | 428 kts | 53° |
| 2026-05-05 00:53 | 39.32436 | -120.08166 | 33015 ft | 429 kts | 53° |
| 2026-05-05 00:54 | 39.36037 | -120.02018 | 33010 ft | 428 kts | 53° |
| 2026-05-05 00:54 | 39.39602 | -119.95917 | 32974 ft | 427 kts | 53° |
| 2026-05-05 00:55 | 39.43181 | -119.89782 | 32908 ft | 428 kts | 54° |
| 2026-05-05 00:55 | 39.46772 | -119.83612 | 32920 ft | 429 kts | 54° |
| 2026-05-05 00:56 | 39.50364 | -119.77428 | 32918 ft | 428 kts | 54° |
| 2026-05-05 00:56 | 39.53918 | -119.71298 | 32915 ft | 427 kts | 54° |
| 2026-05-05 00:57 | 39.57486 | -119.65131 | 32908 ft | 428 kts | 54° |
| 2026-05-05 00:57 | 39.61069 | -119.58928 | 32886 ft | 429 kts | 54° |
| 2026-05-05 00:58 | 39.64617 | -119.52771 | 32867 ft | 428 kts | 54° |
| 2026-05-05 00:58 | 39.68193 | -119.46554 | 32849 ft | 429 kts | 54° |
| 2026-05-05 00:59 | 39.71763 | -119.40332 | 32837 ft | 430 kts | 54° |
| 2026-05-05 00:59 | 39.75318 | -119.34125 | 32833 ft | 429 kts | 54° |
| 2026-05-05 01:00 | 39.78879 | -119.27897 | 32832 ft | 428 kts | 54° |
| 2026-05-05 01:00 | 39.82435 | -119.21665 | 32838 ft | 429 kts | 54° |
| 2026-05-05 01:01 | 39.85994 | -119.15412 | 32848 ft | 429 kts | 54° |
| 2026-05-05 01:01 | 39.89505 | -119.09014 | 32838 ft | 445 kts | 56° |
| 2026-05-05 01:02 | 39.93035 | -119.02207 | 32837 ft | 458 kts | 57° |
| 2026-05-05 01:02 | 39.96533 | -118.95259 | 32836 ft | 458 kts | 58° |
| 2026-05-05 01:03 | 39.99776 | -118.88151 | 32867 ft | 458 kts | 60° |
| 2026-05-05 01:03 | 40.02918 | -118.80923 | 32861 ft | 459 kts | 60° |
| 2026-05-05 01:04 | 40.06041 | -118.73632 | 32867 ft | 460 kts | 60° |
| 2026-05-05 01:04 | 40.10691 | -118.62701 | 32878 ft | 461 kts | 61° |
| 2026-05-05 01:05 | 40.13808 | -118.55356 | 32887 ft | 462 kts | 61° |
| 2026-05-05 01:05 | 40.16926 | -118.47985 | 32876 ft | 463 kts | 61° |
| 2026-05-05 01:06 | 40.20022 | -118.40649 | 32846 ft | 463 kts | 61° |
| 2026-05-05 01:06 | 40.23138 | -118.33245 | 32849 ft | 464 kts | 61° |
| 2026-05-05 01:07 | 40.26248 | -118.25837 | 32827 ft | 465 kts | 61° |
| 2026-05-05 01:07 | 40.29361 | -118.18398 | 32814 ft | 465 kts | 62° |
| 2026-05-05 01:08 | 40.31910 | -118.10681 | 32814 ft | 466 kts | 71° |
| 2026-05-05 01:08 | 40.33842 | -118.02574 | 32809 ft | 466 kts | 73° |
| 2026-05-05 01:09 | 40.35654 | -117.94411 | 32806 ft | 465 kts | 74° |
| 2026-05-05 01:09 | 40.37417 | -117.86247 | 32802 ft | 464 kts | 74° |
| 2026-05-05 01:10 | 40.39146 | -117.78134 | 32797 ft | 464 kts | 74° |
| 2026-05-05 01:10 | 40.40869 | -117.69985 | 32800 ft | 463 kts | 74° |
| 2026-05-05 01:11 | 40.42582 | -117.61825 | 32798 ft | 463 kts | 74° |
| 2026-05-05 01:11 | 40.44272 | -117.53731 | 32794 ft | 462 kts | 74° |
| 2026-05-05 01:12 | 40.45972 | -117.45561 | 32799 ft | 462 kts | 74° |
| 2026-05-05 01:12 | 40.47660 | -117.37414 | 32792 ft | 462 kts | 74° |
| 2026-05-05 01:13 | 40.49346 | -117.29248 | 32794 ft | 463 kts | 74° |
| 2026-05-05 01:13 | 40.51018 | -117.21118 | 32809 ft | 464 kts | 74° |
| 2026-05-05 01:14 | 40.52704 | -117.12886 | 32825 ft | 465 kts | 74° |
| 2026-05-05 01:14 | 40.54370 | -117.04719 | 32846 ft | 466 kts | 74° |
| 2026-05-05 01:15 | 40.56069 | -116.96476 | 32856 ft | 467 kts | 72° |
| 2026-05-05 01:15 | 40.58657 | -116.88619 | 32857 ft | 468 kts | 64° |
| 2026-05-05 01:16 | 40.61555 | -116.80938 | 32858 ft | 469 kts | 63° |
| 2026-05-05 01:16 | 40.64502 | -116.73318 | 32850 ft | 470 kts | 63° |
| 2026-05-05 01:17 | 40.67493 | -116.65628 | 32832 ft | 471 kts | 63° |
| 2026-05-05 01:17 | 40.70485 | -116.57944 | 32805 ft | 471 kts | 63° |
| 2026-05-05 01:18 | 40.73482 | -116.50242 | 32787 ft | 471 kts | 63° |
| 2026-05-05 01:18 | 40.76455 | -116.42585 | 32772 ft | 471 kts | 63° |
| 2026-05-05 01:19 | 40.79433 | -116.34899 | 32772 ft | 471 kts | 63° |
| 2026-05-05 01:19 | 40.82419 | -116.27179 | 32773 ft | 472 kts | 63° |
| 2026-05-05 01:20 | 40.85402 | -116.19445 | 32787 ft | 472 kts | 63° |
| 2026-05-05 01:20 | 40.88382 | -116.11704 | 32796 ft | 472 kts | 63° |
| 2026-05-05 01:21 | 40.91354 | -116.03960 | 32805 ft | 472 kts | 63° |
| 2026-05-05 01:21 | 40.94308 | -115.96245 | 32816 ft | 472 kts | 63° |
| 2026-05-05 01:22 | 40.97281 | -115.88459 | 32815 ft | 473 kts | 63° |
| 2026-05-05 01:22 | 41.00231 | -115.80719 | 32812 ft | 473 kts | 63° |
| 2026-05-05 01:23 | 41.03194 | -115.72922 | 32803 ft | 473 kts | 63° |
| 2026-05-05 01:23 | 41.06148 | -115.65128 | 32793 ft | 473 kts | 63° |
| 2026-05-05 01:24 | 41.09081 | -115.57368 | 32777 ft | 474 kts | 63° |
| 2026-05-05 01:24 | 41.12036 | -115.49529 | 32761 ft | 475 kts | 63° |
| 2026-05-05 01:25 | 41.14984 | -115.41690 | 32762 ft | 475 kts | 63° |
| 2026-05-05 01:25 | 41.17930 | -115.33836 | 32756 ft | 475 kts | 63° |
| 2026-05-05 01:26 | 41.20875 | -115.25962 | 32748 ft | 476 kts | 63° |
| 2026-05-05 01:26 | 41.23808 | -115.18104 | 32756 ft | 477 kts | 63° |
| 2026-05-05 01:27 | 41.26754 | -115.10184 | 32745 ft | 477 kts | 63° |
| 2026-05-05 01:27 | 41.29694 | -115.02260 | 32747 ft | 478 kts | 63° |
| 2026-05-05 01:28 | 41.32620 | -114.94353 | 32743 ft | 478 kts | 63° |
| 2026-05-05 01:28 | 41.35057 | -114.87749 | 32744 ft | 478 kts | 63° |
| 2026-05-05 01:29 | 41.37988 | -114.79786 | 32743 ft | 478 kts | 63° |
| 2026-05-05 01:29 | 41.40916 | -114.71811 | 32740 ft | 478 kts | 63° |
| 2026-05-05 01:30 | 41.43816 | -114.63889 | 32741 ft | 478 kts | 63° |
| 2026-05-05 01:30 | 41.46736 | -114.55888 | 32740 ft | 479 kts | 63° |
| 2026-05-05 01:31 | 41.49651 | -114.47878 | 32737 ft | 479 kts | 63° |
| 2026-05-05 01:31 | 41.52555 | -114.39877 | 32737 ft | 479 kts | 63° |
| 2026-05-05 01:32 | 41.55444 | -114.31893 | 32734 ft | 480 kts | 63° |
| 2026-05-05 01:32 | 41.58346 | -114.23856 | 32736 ft | 481 kts | 63° |
| 2026-05-05 01:33 | 41.61246 | -114.15801 | 32733 ft | 481 kts | 64° |
| 2026-05-05 01:33 | 41.64150 | -114.07715 | 32735 ft | 482 kts | 64° |
| 2026-05-05 01:34 | 41.67034 | -113.99659 | 32736 ft | 483 kts | 64° |
| 2026-05-05 01:34 | 41.69935 | -113.91533 | 32740 ft | 483 kts | 64° |
| 2026-05-05 01:35 | 41.72832 | -113.83396 | 32739 ft | 484 kts | 64° |
| 2026-05-05 01:35 | 41.75686 | -113.75351 | 32735 ft | 470 kts | 64° |
| 2026-05-05 01:36 | 41.78453 | -113.67531 | 32736 ft | 467 kts | 64° |
| 2026-05-05 01:36 | 41.81249 | -113.59610 | 32736 ft | 472 kts | 64° |
| 2026-05-05 01:37 | 41.84047 | -113.51659 | 32727 ft | 470 kts | 64° |
| 2026-05-05 01:37 | 41.86836 | -113.43714 | 32722 ft | 471 kts | 64° |
| 2026-05-05 01:38 | 41.89617 | -113.35768 | 32718 ft | 473 kts | 64° |
| 2026-05-05 01:38 | 41.92410 | -113.27759 | 32714 ft | 473 kts | 64° |
| 2026-05-05 01:39 | 41.95185 | -113.19783 | 32708 ft | 473 kts | 64° |
| 2026-05-05 01:39 | 41.97978 | -113.11733 | 32702 ft | 474 kts | 64° |
| 2026-05-05 01:40 | 42.00758 | -113.03699 | 32699 ft | 474 kts | 64° |
| 2026-05-05 01:40 | 42.03533 | -112.95655 | 32696 ft | 474 kts | 64° |
| 2026-05-05 01:41 | 42.06285 | -112.87653 | 32701 ft | 474 kts | 64° |
| 2026-05-05 01:41 | 42.09057 | -112.79573 | 32701 ft | 475 kts | 64° |
| 2026-05-05 01:42 | 42.11826 | -112.71475 | 32706 ft | 475 kts | 64° |
| 2026-05-05 01:42 | 42.14567 | -112.63435 | 32707 ft | 475 kts | 64° |
| 2026-05-05 01:43 | 42.17321 | -112.55335 | 32715 ft | 476 kts | 64° |
| 2026-05-05 01:43 | 42.20083 | -112.47186 | 32713 ft | 476 kts | 64° |
| 2026-05-05 01:44 | 42.22815 | -112.39102 | 32718 ft | 475 kts | 64° |
| 2026-05-05 01:44 | 42.25559 | -112.30960 | 32720 ft | 476 kts | 64° |
| 2026-05-05 01:45 | 42.28303 | -112.22790 | 32785 ft | 477 kts | 65° |
| 2026-05-05 01:45 | 42.29657 | -112.18751 | 33016 ft | 479 kts | 65° |
| 2026-05-05 01:45 | 42.31032 | -112.14642 | 33263 ft | 481 kts | 65° |
| 2026-05-05 01:46 | 42.32418 | -112.10492 | 33515 ft | 484 kts | 65° |
| 2026-05-05 01:46 | 42.33806 | -112.06334 | 33757 ft | 486 kts | 65° |
| 2026-05-05 01:46 | 42.35201 | -112.02146 | 33928 ft | 490 kts | 65° |
| 2026-05-05 01:46 | 42.36605 | -111.97923 | 34102 ft | 493 kts | 65° |
| 2026-05-05 01:47 | 42.38017 | -111.93674 | 34255 ft | 496 kts | 65° |
| 2026-05-05 01:47 | 42.39416 | -111.89458 | 34320 ft | 497 kts | 65° |
| 2026-05-05 01:47 | 42.42249 | -111.80895 | 34347 ft | 498 kts | 65° |
| 2026-05-05 01:48 | 42.45075 | -111.72320 | 34384 ft | 498 kts | 65° |
| 2026-05-05 01:48 | 42.47903 | -111.63716 | 34551 ft | 497 kts | 65° |
| 2026-05-05 01:49 | 42.49284 | -111.59506 | 34669 ft | 496 kts | 65° |
| 2026-05-05 01:49 | 42.50708 | -111.55158 | 34720 ft | 501 kts | 65° |
| 2026-05-05 01:49 | 42.53517 | -111.46564 | 34760 ft | 502 kts | 65° |
| 2026-05-05 01:50 | 42.56339 | -111.37895 | 34770 ft | 502 kts | 65° |
| 2026-05-05 01:50 | 42.59160 | -111.29206 | 34793 ft | 502 kts | 65° |
| 2026-05-05 01:51 | 42.61954 | -111.20564 | 34819 ft | 503 kts | 65° |
| 2026-05-05 01:51 | 42.64764 | -111.11850 | 34835 ft | 503 kts | 65° |
| 2026-05-05 01:52 | 42.67567 | -111.03129 | 34856 ft | 503 kts | 65° |
| 2026-05-05 01:52 | 42.70352 | -110.94450 | 34853 ft | 503 kts | 65° |
| 2026-05-05 01:53 | 42.73149 | -110.85697 | 34864 ft | 504 kts | 65° |
| 2026-05-05 01:53 | 42.75942 | -110.76930 | 34854 ft | 504 kts | 65° |
| 2026-05-05 01:54 | 42.78712 | -110.68196 | 34834 ft | 505 kts | 65° |
| 2026-05-05 01:54 | 42.81485 | -110.59420 | 34825 ft | 505 kts | 65° |
| 2026-05-05 01:55 | 42.84246 | -110.50659 | 34814 ft | 504 kts | 65° |
| 2026-05-05 01:55 | 42.87022 | -110.41815 | 34811 ft | 504 kts | 65° |
| 2026-05-05 01:56 | 42.89759 | -110.33062 | 34805 ft | 504 kts | 65° |
| 2026-05-05 01:56 | 42.92505 | -110.24249 | 34808 ft | 504 kts | 65° |
| 2026-05-05 01:57 | 42.95232 | -110.15468 | 34831 ft | 504 kts | 65° |
| 2026-05-05 01:57 | 42.97964 | -110.06632 | 34844 ft | 504 kts | 65° |
| 2026-05-05 01:58 | 43.00657 | -109.97770 | 34856 ft | 505 kts | 66° |
| 2026-05-05 01:58 | 43.03267 | -109.88846 | 34866 ft | 505 kts | 66° |
| 2026-05-05 01:59 | 43.05836 | -109.79938 | 34870 ft | 505 kts | 66° |
| 2026-05-05 01:59 | 43.08406 | -109.70975 | 34875 ft | 505 kts | 66° |
| 2026-05-05 02:00 | 43.10951 | -109.62066 | 34877 ft | 505 kts | 66° |
| 2026-05-05 02:00 | 43.13504 | -109.53098 | 34890 ft | 506 kts | 66° |
| 2026-05-05 02:01 | 43.16057 | -109.44093 | 34895 ft | 506 kts | 66° |
| 2026-05-05 02:01 | 43.18599 | -109.35095 | 34898 ft | 506 kts | 66° |
| 2026-05-05 02:02 | 43.21125 | -109.26120 | 34894 ft | 507 kts | 66° |
| 2026-05-05 02:02 | 43.23662 | -109.17075 | 34891 ft | 507 kts | 66° |
| 2026-05-05 02:03 | 43.26182 | -109.08065 | 34886 ft | 509 kts | 66° |
| 2026-05-05 02:03 | 43.28716 | -108.98972 | 34872 ft | 510 kts | 66° |
| 2026-05-05 02:04 | 43.31254 | -108.89832 | 34869 ft | 511 kts | 66° |
| 2026-05-05 02:04 | 43.33770 | -108.80734 | 34862 ft | 513 kts | 65° |
| 2026-05-05 02:05 | 43.36301 | -108.71557 | 34862 ft | 513 kts | 65° |
| 2026-05-05 02:05 | 43.38835 | -108.62332 | 34871 ft | 514 kts | 65° |
| 2026-05-05 02:06 | 43.41344 | -108.53162 | 34885 ft | 515 kts | 65° |
| 2026-05-05 02:06 | 43.43869 | -108.43900 | 34909 ft | 516 kts | 65° |
| 2026-05-05 02:07 | 43.46380 | -108.34655 | 34942 ft | 517 kts | 65° |
| 2026-05-05 02:07 | 43.48895 | -108.25366 | 34953 ft | 517 kts | 65° |
| 2026-05-05 02:08 | 43.51393 | -108.16104 | 34939 ft | 518 kts | 65° |
| 2026-05-05 02:08 | 43.53898 | -108.06779 | 34932 ft | 519 kts | 65° |
| 2026-05-05 02:09 | 43.56397 | -107.97434 | 34922 ft | 519 kts | 65° |
| 2026-05-05 02:09 | 43.58881 | -107.88116 | 34893 ft | 520 kts | 65° |
| 2026-05-05 02:10 | 43.61368 | -107.78755 | 34897 ft | 520 kts | 65° |
| 2026-05-05 02:10 | 43.63855 | -107.69352 | 34898 ft | 521 kts | 65° |
| 2026-05-05 02:11 | 43.66336 | -107.59938 | 34907 ft | 522 kts | 65° |
| 2026-05-05 02:11 | 43.68812 | -107.50491 | 34909 ft | 523 kts | 65° |
| 2026-05-05 02:12 | 43.72509 | -107.36336 | 34917 ft | 524 kts | 65° |
| 2026-05-05 02:13 | 43.74976 | -107.26834 | 34922 ft | 525 kts | 65° |
| 2026-05-05 02:13 | 43.77438 | -107.17313 | 34932 ft | 525 kts | 65° |
| 2026-05-05 02:14 | 43.79885 | -107.07778 | 34938 ft | 526 kts | 66° |
| 2026-05-05 02:14 | 43.82186 | -106.98204 | 34943 ft | 526 kts | 67° |
| 2026-05-05 02:15 | 43.84421 | -106.88580 | 34950 ft | 527 kts | 68° |
| 2026-05-05 02:15 | 43.86651 | -106.78865 | 34959 ft | 529 kts | 68° |
| 2026-05-05 02:16 | 43.88495 | -106.70778 | 34964 ft | 529 kts | 68° |
| 2026-05-05 02:16 | 43.90713 | -106.61009 | 34957 ft | 530 kts | 68° |
| 2026-05-05 02:17 | 43.92916 | -106.51252 | 34960 ft | 529 kts | 68° |
| 2026-05-05 02:17 | 43.95065 | -106.41663 | 34948 ft | 512 kts | 68° |
| 2026-05-05 02:18 | 43.97153 | -106.32309 | 34955 ft | 511 kts | 68° |
| 2026-05-05 02:18 | 43.99278 | -106.22800 | 34960 ft | 518 kts | 68° |
| 2026-05-05 02:19 | 44.01407 | -106.13220 | 34961 ft | 517 kts | 68° |
| 2026-05-05 02:19 | 44.03519 | -106.03668 | 34966 ft | 517 kts | 68° |
| 2026-05-05 02:20 | 44.05629 | -105.94083 | 34969 ft | 520 kts | 68° |
| 2026-05-05 02:20 | 44.07756 | -105.84405 | 35235 ft | 529 kts | 68° |
| 2026-05-05 02:20 | 44.08836 | -105.79479 | 35430 ft | 533 kts | 68° |
| 2026-05-05 02:21 | 44.09919 | -105.74529 | 35616 ft | 536 kts | 69° |
| 2026-05-05 02:21 | 44.11005 | -105.69552 | 35796 ft | 539 kts | 69° |
| 2026-05-05 02:21 | 44.12096 | -105.64537 | 35974 ft | 541 kts | 69° |
| 2026-05-05 02:22 | 44.14275 | -105.54461 | 36081 ft | 544 kts | 69° |
| 2026-05-05 02:22 | 44.16431 | -105.44425 | 36099 ft | 545 kts | 69° |
| 2026-05-05 02:23 | 44.18591 | -105.34302 | 36532 ft | 539 kts | 69° |
| 2026-05-05 02:23 | 44.19651 | -105.29329 | 37115 ft | 534 kts | 70° |
| 2026-05-05 02:23 | 44.20715 | -105.24338 | 37222 ft | 538 kts | 70° |
| 2026-05-05 02:23 | 44.21768 | -105.19370 | 37621 ft | 530 kts | 70° |
| 2026-05-05 02:24 | 44.22796 | -105.14508 | 37782 ft | 527 kts | 70° |
| 2026-05-05 02:24 | 44.24881 | -105.04627 | 37875 ft | 537 kts | 70° |
| 2026-05-05 02:25 | 44.27003 | -104.94537 | 37880 ft | 547 kts | 70° |
| 2026-05-05 02:25 | 44.29126 | -104.84361 | 37880 ft | 543 kts | 70° |
| 2026-05-05 02:26 | 44.31210 | -104.74294 | 37886 ft | 530 kts | 70° |
| 2026-05-05 02:26 | 44.32216 | -104.69397 | 37888 ft | 518 kts | 70° |
| 2026-05-05 02:26 | 44.33197 | -104.64602 | 37886 ft | 508 kts | 70° |
| 2026-05-05 02:27 | 44.35105 | -104.55263 | 37891 ft | 493 kts | 70° |
| 2026-05-05 02:27 | 44.36960 | -104.46172 | 37892 ft | 487 kts | 70° |
| 2026-05-05 02:28 | 44.38842 | -104.36961 | 37898 ft | 498 kts | 70° |
| 2026-05-05 02:28 | 44.40751 | -104.27598 | 37889 ft | 497 kts | 70° |
| 2026-05-05 02:29 | 44.42597 | -104.18440 | 37891 ft | 487 kts | 70° |
| 2026-05-05 02:29 | 44.44429 | -104.09306 | 37884 ft | 488 kts | 70° |
| 2026-05-05 02:30 | 44.46278 | -104.00095 | 37886 ft | 494 kts | 70° |
| 2026-05-05 02:30 | 44.48135 | -103.90808 | 37878 ft | 494 kts | 70° |
| 2026-05-05 02:31 | 44.49965 | -103.81559 | 37874 ft | 491 kts | 70° |
| 2026-05-05 02:31 | 44.51788 | -103.72317 | 37877 ft | 492 kts | 70° |
| 2026-05-05 02:32 | 44.53599 | -103.63098 | 37877 ft | 494 kts | 70° |
| 2026-05-05 02:32 | 44.55417 | -103.53802 | 37837 ft | 494 kts | 70° |
| 2026-05-05 02:32 | 44.56321 | -103.49160 | 37701 ft | 493 kts | 70° |
| 2026-05-05 02:33 | 44.57223 | -103.44511 | 37478 ft | 491 kts | 70° |
| 2026-05-05 02:33 | 44.58118 | -103.39879 | 37226 ft | 489 kts | 70° |
| 2026-05-05 02:33 | 44.59002 | -103.35292 | 36895 ft | 486 kts | 70° |
| 2026-05-05 02:33 | 44.59868 | -103.30780 | 36558 ft | 483 kts | 70° |
| 2026-05-05 02:34 | 44.60740 | -103.26234 | 36239 ft | 480 kts | 70° |
| 2026-05-05 02:34 | 44.61603 | -103.21719 | 35923 ft | 476 kts | 70° |
| 2026-05-05 02:34 | 44.62459 | -103.17237 | 35585 ft | 474 kts | 70° |
| 2026-05-05 02:34 | 44.63326 | -103.12721 | 34674 ft | 488 kts | 70° |
| 2026-05-05 02:35 | 44.64228 | -103.08034 | 33823 ft | 504 kts | 70° |
| 2026-05-05 02:35 | 44.65151 | -103.03230 | 33420 ft | 512 kts | 70° |
| 2026-05-05 02:35 | 44.66062 | -102.98453 | 33135 ft | 510 kts | 70° |
| 2026-05-05 02:35 | 44.66967 | -102.93667 | 33025 ft | 502 kts | 70° |
| 2026-05-05 02:36 | 44.67849 | -102.88957 | 32981 ft | 495 kts | 70° |
| 2026-05-05 02:36 | 44.69580 | -102.79684 | 32957 ft | 489 kts | 70° |
| 2026-05-05 02:37 | 44.71334 | -102.70322 | 32961 ft | 501 kts | 70° |
| 2026-05-05 02:37 | 44.73107 | -102.60807 | 32950 ft | 502 kts | 70° |
| 2026-05-05 02:38 | 44.74849 | -102.51370 | 32953 ft | 500 kts | 71° |
| 2026-05-05 02:38 | 44.76387 | -102.41770 | 32945 ft | 505 kts | 76° |
| 2026-05-05 02:39 | 44.77558 | -102.32031 | 32953 ft | 507 kts | 77° |
| 2026-05-05 02:39 | 44.78640 | -102.22223 | 32959 ft | 507 kts | 78° |
| 2026-05-05 02:40 | 44.79690 | -102.12401 | 32961 ft | 507 kts | 78° |